createdAt,value
2023-05-14T00:00:25.851Z,75.39
2023-05-14T00:01:28.201Z,75.19
2023-05-14T00:02:30.436Z,74.30
2023-05-14T00:03:32.811Z,74.22
2023-05-14T00:04:34.976Z,74.30
2023-05-14T00:05:37.141Z,74.34
2023-05-14T00:06:39.430Z,74.83
2023-05-14T00:07:41.555Z,74.68
2023-05-14T00:08:43.662Z,75.16
2023-05-14T00:09:45.754Z,74.38
2023-05-14T00:10:47.887Z,75.16
2023-05-14T00:11:50.038Z,74.61
2023-05-14T00:12:52.169Z,75.24
2023-05-14T00:13:54.304Z,75.86
2023-05-14T00:14:57.032Z,76.41
2023-05-14T00:15:59.328Z,76.66
2023-05-14T00:17:01.620Z,76.30
2023-05-14T00:18:03.882Z,76.42
2023-05-14T00:19:06.247Z,76.62
2023-05-14T00:20:08.934Z,76.57
2023-05-14T00:21:11.210Z,77.09
2023-05-14T00:22:13.339Z,77.62
2023-05-14T00:23:15.500Z,75.81
2023-05-14T00:24:17.627Z,75.85
2023-05-14T00:25:19.758Z,75.53
2023-05-14T00:26:21.862Z,76.97
2023-05-14T00:27:24.020Z,77.25
2023-05-14T00:28:26.423Z,77.82
2023-05-14T00:29:28.532Z,77.80
2023-05-14T00:30:30.618Z,75.68
2023-05-14T00:31:32.786Z,76.41
2023-05-14T00:32:35.221Z,76.37
2023-05-14T00:33:37.340Z,76.01
2023-05-14T00:34:39.447Z,76.19
2023-05-14T00:35:41.676Z,75.13
2023-05-14T00:36:43.758Z,75.01
2023-05-14T00:37:45.882Z,75.30
2023-05-14T00:38:49.341Z,75.51
2023-05-14T00:39:51.471Z,75.25
2023-05-14T00:40:53.546Z,75.56
2023-05-14T00:41:55.819Z,75.43
2023-05-14T00:42:57.962Z,75.52
2023-05-14T00:44:00.092Z,75.86
2023-05-14T00:45:02.219Z,74.36
2023-05-14T00:46:04.391Z,75.65
2023-05-14T00:47:07.367Z,75.86
2023-05-14T00:48:09.564Z,75.91
2023-05-14T00:49:11.793Z,75.38
2023-05-14T00:50:15.227Z,75.61
2023-05-14T00:51:18.182Z,74.96
2023-05-14T00:52:20.541Z,74.16
2023-05-14T00:53:22.862Z,74.65
2023-05-14T00:54:25.226Z,75.01
2023-05-14T00:55:28.992Z,75.51
2023-05-14T00:56:31.726Z,75.14
2023-05-14T00:57:37.199Z,75.37
2023-05-14T00:58:39.353Z,75.81
2023-05-14T00:59:42.719Z,75.85
2023-05-14T01:00:44.992Z,75.34
2023-05-14T01:01:47.130Z,75.32
2023-05-14T01:02:49.296Z,74.91
2023-05-14T01:03:53.534Z,74.79
2023-05-14T01:04:56.039Z,75.17
2023-05-14T01:06:10.162Z,74.19
2023-05-14T01:07:47.290Z,75.13
2023-05-14T01:08:52.332Z,75.06
2023-05-14T01:10:09.498Z,74.98
2023-05-14T01:11:15.805Z,75.09
2023-05-14T01:12:27.040Z,75.46
2023-05-14T01:13:34.501Z,75.31
2023-05-14T01:14:59.015Z,75.07
2023-05-14T01:16:02.383Z,75.27
2023-05-14T01:17:06.284Z,75.19
2023-05-14T01:18:11.429Z,75.55
2023-05-14T01:19:27.688Z,74.81
2023-05-14T01:20:29.795Z,75.01
2023-05-14T01:21:40.983Z,75.47
2023-05-14T01:22:43.336Z,76.07
2023-05-14T01:23:45.478Z,76.06
2023-05-14T01:24:47.694Z,76.27
2023-05-14T01:25:50.017Z,75.75
2023-05-14T01:26:52.873Z,75.84
2023-05-14T01:28:12.128Z,76.17
2023-05-14T01:29:20.934Z,75.82
2023-05-14T01:30:32.152Z,75.98
2023-05-14T01:31:36.761Z,76.74
2023-05-14T01:32:39.518Z,75.93
2023-05-14T01:33:42.566Z,76.07
2023-05-14T01:34:45.692Z,76.52
2023-05-14T01:35:48.530Z,76.21
2023-05-14T01:36:51.491Z,76.20
2023-05-14T01:38:05.350Z,76.02
2023-05-14T01:39:09.693Z,77.21
2023-05-14T01:40:12.042Z,77.64
2023-05-14T01:41:14.668Z,77.49
2023-05-14T01:42:16.827Z,77.91
2023-05-14T01:43:19.211Z,78.37
2023-05-14T01:44:21.848Z,76.74
2023-05-14T01:45:24.621Z,76.64
2023-05-14T01:46:26.835Z,77.31
2023-05-14T01:47:29.006Z,77.44
2023-05-14T01:48:31.187Z,77.48
2023-05-14T01:49:33.281Z,77.84
2023-05-14T01:50:35.505Z,78.19
2023-05-14T01:51:37.925Z,79.59
2023-05-14T01:52:40.073Z,79.17
2023-05-14T01:53:42.184Z,78.40
2023-05-14T01:54:44.314Z,78.40
2023-05-14T01:55:46.434Z,78.52
2023-05-14T01:56:48.543Z,78.53
2023-05-14T01:57:51.479Z,78.09
2023-05-14T01:58:53.930Z,78.19
2023-05-14T01:59:56.028Z,78.23
2023-05-14T02:00:58.167Z,78.23
2023-05-14T02:02:00.529Z,78.39
2023-05-14T02:03:02.768Z,78.25
2023-05-14T02:04:05.122Z,78.12
2023-05-14T02:05:07.877Z,77.85
2023-05-14T02:06:09.960Z,78.48
2023-05-14T02:07:12.051Z,77.74
2023-05-14T02:08:14.208Z,77.75
2023-05-14T02:09:16.396Z,77.95
2023-05-14T02:10:18.582Z,77.86
2023-05-14T02:11:21.924Z,78.53
2023-05-14T02:12:24.062Z,77.62
2023-05-14T02:13:26.625Z,77.53
2023-05-14T02:14:28.791Z,77.58
2023-05-14T02:15:30.908Z,77.80
2023-05-14T02:16:33.090Z,77.45
2023-05-14T02:17:35.661Z,77.61
2023-05-14T02:18:37.899Z,77.74
2023-05-14T02:19:40.214Z,77.35
2023-05-14T02:20:42.381Z,77.21
2023-05-14T02:21:44.500Z,77.40
2023-05-14T02:22:46.744Z,77.92
2023-05-14T02:23:49.637Z,77.46
2023-05-14T02:24:51.887Z,77.44
2023-05-14T02:25:54.051Z,77.69
2023-05-14T02:26:56.185Z,77.98
2023-05-14T02:27:58.298Z,77.36
2023-05-14T02:29:00.501Z,77.27
2023-05-14T02:30:03.433Z,77.28
2023-05-14T02:31:05.823Z,77.53
2023-05-14T02:32:08.012Z,77.37
2023-05-14T02:33:10.252Z,77.10
2023-05-14T02:34:12.463Z,77.13
2023-05-14T02:35:14.647Z,77.29
2023-05-14T02:36:16.824Z,77.13
2023-05-14T02:37:18.916Z,76.68
2023-05-14T02:38:21.016Z,76.82
2023-05-14T02:39:23.129Z,77.49
2023-05-14T02:40:25.761Z,77.68
2023-05-14T02:41:28.127Z,78.44
2023-05-14T02:42:30.314Z,79.28
2023-05-14T02:43:32.432Z,79.76
2023-05-14T02:44:34.578Z,78.76
2023-05-14T02:45:36.659Z,78.19
2023-05-14T02:46:38.844Z,78.33
2023-05-14T02:47:41.101Z,78.11
2023-05-14T02:48:43.215Z,78.67
2023-05-14T02:49:45.358Z,77.69
2023-05-14T02:50:49.522Z,78.01
2023-05-14T02:51:51.775Z,78.27
2023-05-14T02:52:53.936Z,78.32
2023-05-14T02:53:56.182Z,78.68
2023-05-14T02:54:58.384Z,77.80
2023-05-14T02:56:00.533Z,78.43
2023-05-14T02:57:02.795Z,77.79
2023-05-14T02:58:04.904Z,77.21
2023-05-14T02:59:07.049Z,77.38
2023-05-14T03:00:10.327Z,77.07
2023-05-14T03:01:12.915Z,76.78
2023-05-14T03:02:15.390Z,77.02
2023-05-14T03:03:19.663Z,77.64
2023-05-14T03:04:22.055Z,77.31
2023-05-14T03:05:24.240Z,77.37
2023-05-14T03:06:26.393Z,76.50
2023-05-14T03:07:28.508Z,76.82
2023-05-14T03:08:30.888Z,76.71
2023-05-14T03:09:32.969Z,77.30
2023-05-14T03:10:35.042Z,76.39
2023-05-14T03:11:37.155Z,76.09
2023-05-14T03:12:39.344Z,76.53
2023-05-14T03:13:41.545Z,76.48
2023-05-14T03:14:44.342Z,76.15
2023-05-14T03:15:47.204Z,76.65
2023-05-14T03:16:50.149Z,76.65
2023-05-14T03:17:52.393Z,76.25
2023-05-14T03:18:54.533Z,76.24
2023-05-14T03:19:56.648Z,77.28
2023-05-14T03:20:58.893Z,75.79
2023-05-14T03:22:01.252Z,76.09
2023-05-14T03:23:03.398Z,75.91
2023-05-14T03:24:05.780Z,76.68
2023-05-14T03:25:08.230Z,75.78
2023-05-14T03:26:10.598Z,76.10
2023-05-14T03:27:12.708Z,76.41
2023-05-14T03:28:14.772Z,76.42
2023-05-14T03:29:18.210Z,76.03
2023-05-14T03:30:20.575Z,75.94
2023-05-14T03:31:22.811Z,75.82
2023-05-14T03:32:25.060Z,75.25
2023-05-14T03:33:27.328Z,75.05
2023-05-14T03:34:29.421Z,74.89
2023-05-14T03:35:31.604Z,75.38
2023-05-14T03:36:34.166Z,74.58
2023-05-14T03:37:36.302Z,74.46
2023-05-14T03:38:38.466Z,74.59
2023-05-14T03:39:40.601Z,73.96
2023-05-14T03:40:42.740Z,73.60
2023-05-14T03:41:44.878Z,74.10
2023-05-14T03:42:47.015Z,73.80
2023-05-14T03:43:49.149Z,74.12
2023-05-14T03:44:51.386Z,74.41
2023-05-14T03:45:53.607Z,73.30
2023-05-14T03:46:56.060Z,73.71
2023-05-14T03:47:58.250Z,74.19
2023-05-14T03:49:00.606Z,73.56
2023-05-14T03:50:02.799Z,75.00
2023-05-14T03:51:05.047Z,75.01
2023-05-14T03:52:07.236Z,74.20
2023-05-14T03:53:09.342Z,73.91
2023-05-14T03:54:11.478Z,73.74
2023-05-14T03:55:13.663Z,73.38
2023-05-14T03:56:16.023Z,73.69
2023-05-14T03:57:18.120Z,73.98
2023-05-14T03:58:20.349Z,73.56
2023-05-14T03:59:22.536Z,74.41
2023-05-14T04:00:25.027Z,74.50
2023-05-14T04:01:27.521Z,73.56
2023-05-14T04:02:30.026Z,73.89
2023-05-14T04:03:32.365Z,73.78
2023-05-14T04:04:34.902Z,74.19
2023-05-14T04:05:37.036Z,74.16
2023-05-14T04:06:39.203Z,74.10
2023-05-14T04:07:41.340Z,73.55
2023-05-14T04:08:43.443Z,73.34
2023-05-14T04:09:45.596Z,73.69
2023-05-14T04:10:47.718Z,74.20
2023-05-14T04:11:49.870Z,73.23
2023-05-14T04:12:52.131Z,73.02
2023-05-14T04:13:54.312Z,73.20
2023-05-14T04:14:57.712Z,73.79
2023-05-14T04:16:00.494Z,72.93
2023-05-14T04:17:02.666Z,72.63
2023-05-14T04:18:05.271Z,72.94
2023-05-14T04:19:07.669Z,73.60
2023-05-14T04:20:10.324Z,73.16
2023-05-14T04:21:12.616Z,74.19
2023-05-14T04:22:14.752Z,72.90
2023-05-14T04:23:16.871Z,72.75
2023-05-14T04:24:19.034Z,72.28
2023-05-14T04:25:21.287Z,72.70
2023-05-14T04:26:23.453Z,72.80
2023-05-14T04:27:25.718Z,72.58
2023-05-14T04:28:27.820Z,72.54
2023-05-14T04:29:30.099Z,72.27
2023-05-14T04:30:32.224Z,72.58
2023-05-14T04:31:34.415Z,73.77
2023-05-14T04:32:36.776Z,72.29
2023-05-14T04:33:39.919Z,72.15
2023-05-14T04:34:42.097Z,72.01
2023-05-14T04:35:45.389Z,72.53
2023-05-14T04:36:47.495Z,71.74
2023-05-14T04:37:49.661Z,71.73
2023-05-14T04:38:51.763Z,71.90
2023-05-14T04:39:53.866Z,72.26
2023-05-14T04:40:55.990Z,72.45
2023-05-14T04:41:58.076Z,72.37
2023-05-14T04:43:00.225Z,71.96
2023-05-14T04:44:03.245Z,72.11
2023-05-14T04:45:06.825Z,72.19
2023-05-14T04:46:09.556Z,72.06
2023-05-14T04:47:12.581Z,72.11
2023-05-14T04:48:14.736Z,72.16
2023-05-14T04:49:16.832Z,72.19
2023-05-14T04:50:18.958Z,72.92
2023-05-14T04:51:21.074Z,72.24
2023-05-14T04:52:23.303Z,72.30
2023-05-14T04:53:25.481Z,72.09
2023-05-14T04:54:27.621Z,72.80
2023-05-14T04:55:29.903Z,72.55
2023-05-14T04:56:32.005Z,71.51
2023-05-14T04:57:34.104Z,71.77
2023-05-14T04:58:36.438Z,72.66
2023-05-14T04:59:38.560Z,72.81
2023-05-14T05:00:40.936Z,73.46
2023-05-14T05:01:43.150Z,73.18
2023-05-14T05:02:45.325Z,72.22
2023-05-14T05:03:47.548Z,71.56
2023-05-14T05:04:49.706Z,72.31
2023-05-14T05:05:52.094Z,72.69
2023-05-14T05:06:54.197Z,71.96
2023-05-14T05:07:56.333Z,70.84
2023-05-14T05:08:59.564Z,71.89
2023-05-14T05:10:03.696Z,71.48
2023-05-14T05:11:05.828Z,72.18
2023-05-14T05:12:08.231Z,71.83
2023-05-14T05:13:10.323Z,71.42
2023-05-14T05:14:12.424Z,71.53
2023-05-14T05:15:14.549Z,72.06
2023-05-14T05:16:16.730Z,72.24
2023-05-14T05:17:18.877Z,72.43
2023-05-14T05:18:21.211Z,71.29
2023-05-14T05:19:35.898Z,71.60
2023-05-14T05:20:44.980Z,73.82
2023-05-14T05:21:47.122Z,73.27
2023-05-14T05:22:49.221Z,72.73
2023-05-14T05:23:51.323Z,72.48
2023-05-14T05:24:53.461Z,73.13
2023-05-14T05:25:55.553Z,72.41
2023-05-14T05:26:57.690Z,72.66
2023-05-14T05:27:59.890Z,72.74
2023-05-14T05:29:02.166Z,72.52
2023-05-14T05:30:04.677Z,72.10
2023-05-14T05:31:06.771Z,71.93
2023-05-14T05:32:08.980Z,72.22
2023-05-14T05:33:12.269Z,72.08
2023-05-14T05:34:14.462Z,72.21
2023-05-14T05:35:16.577Z,72.23
2023-05-14T05:36:18.724Z,72.37
2023-05-14T05:37:20.981Z,71.08
2023-05-14T05:38:23.255Z,72.37
2023-05-14T05:39:25.347Z,71.80
2023-05-14T05:40:27.554Z,72.35
2023-05-14T05:41:30.328Z,72.16
2023-05-14T05:42:32.423Z,72.65
2023-05-14T05:43:34.600Z,71.52
2023-05-14T05:44:36.749Z,71.66
2023-05-14T05:45:38.838Z,71.62
2023-05-14T05:46:41.109Z,71.42
2023-05-14T05:47:43.385Z,72.19
2023-05-14T05:48:45.662Z,72.40
2023-05-14T05:49:47.833Z,71.80
2023-05-14T05:50:50.454Z,71.52
2023-05-14T05:51:52.580Z,72.36
2023-05-14T05:52:54.736Z,71.70
2023-05-14T05:53:56.910Z,71.26
2023-05-14T05:54:59.123Z,71.22
2023-05-14T05:57:25.664Z,71.73
2023-05-14T05:58:28.556Z,71.07
2023-05-14T05:59:30.981Z,72.14
2023-05-14T06:00:33.492Z,72.00
2023-05-14T06:01:35.743Z,72.70
2023-05-14T06:02:38.222Z,71.63
2023-05-14T06:03:40.451Z,72.02
2023-05-14T06:04:42.529Z,71.88
2023-05-14T06:05:44.804Z,71.66
2023-05-14T06:06:47.060Z,72.01
2023-05-14T06:07:49.228Z,71.24
2023-05-14T06:08:51.445Z,70.84
2023-05-14T06:09:53.528Z,71.99
2023-05-14T06:10:55.615Z,72.95
2023-05-14T06:11:57.764Z,72.04
2023-05-14T06:12:59.937Z,71.54
2023-05-14T06:14:02.173Z,71.70
2023-05-14T06:15:04.782Z,71.55
2023-05-14T06:16:06.997Z,72.26
2023-05-14T06:17:09.182Z,71.83
2023-05-14T06:18:11.636Z,71.02
2023-05-14T06:19:14.167Z,71.63
2023-05-14T06:20:16.490Z,71.65
2023-05-14T06:21:19.150Z,72.31
2023-05-14T06:22:21.322Z,72.63
2023-05-14T06:23:23.454Z,72.07
2023-05-14T06:24:25.572Z,72.63
2023-05-14T06:25:27.712Z,73.27
2023-05-14T06:26:30.107Z,73.11
2023-05-14T06:27:32.292Z,73.80
2023-05-14T06:28:34.462Z,73.46
2023-05-14T06:29:36.617Z,73.22
2023-05-14T06:30:38.739Z,72.65
2023-05-14T06:31:41.109Z,73.03
2023-05-14T06:32:43.314Z,73.25
2023-05-14T06:33:45.563Z,74.36
2023-05-14T06:34:47.668Z,74.78
2023-05-14T06:35:49.886Z,73.66
2023-05-14T06:36:52.029Z,74.57
2023-05-14T06:37:54.269Z,73.69
2023-05-14T06:38:56.423Z,73.96
2023-05-14T06:39:58.685Z,74.12
2023-05-14T06:41:00.815Z,74.56
2023-05-14T06:42:03.171Z,75.00
2023-05-14T06:43:06.748Z,74.10
2023-05-14T06:44:08.952Z,74.88
2023-05-14T06:45:11.419Z,74.50
2023-05-14T06:46:13.525Z,73.71
2023-05-14T06:47:15.881Z,73.74
2023-05-14T06:48:21.718Z,73.10
2023-05-14T06:49:23.950Z,74.24
2023-05-14T06:50:26.122Z,74.23
2023-05-14T06:51:28.236Z,74.44
2023-05-14T06:52:30.481Z,73.53
2023-05-14T06:53:32.617Z,74.29
2023-05-14T06:54:34.796Z,74.31
2023-05-14T06:55:36.917Z,74.26
2023-05-14T06:56:39.074Z,73.96
2023-05-14T06:57:41.246Z,72.31
2023-05-14T06:58:43.372Z,73.38
2023-05-14T06:59:45.515Z,73.59
2023-05-14T07:00:48.187Z,72.92
2023-05-14T07:01:50.445Z,72.52
2023-05-14T07:02:52.679Z,73.69
2023-05-14T07:03:54.862Z,73.18
2023-05-14T07:04:57.060Z,74.04
2023-05-14T07:05:59.142Z,72.69
2023-05-14T07:07:01.273Z,75.36
2023-05-14T07:08:03.433Z,74.18
2023-05-14T07:09:06.554Z,73.87
2023-05-14T07:10:08.739Z,73.48
2023-05-14T07:11:10.848Z,72.47
2023-05-14T07:12:12.991Z,72.30
2023-05-14T07:13:15.128Z,71.51
2023-05-14T07:14:17.342Z,71.87
2023-05-14T07:15:19.558Z,71.79
2023-05-14T07:16:21.690Z,72.70
2023-05-14T07:17:24.256Z,72.52
2023-05-14T07:18:26.557Z,72.68
2023-05-14T07:19:29.687Z,70.91
2023-05-14T07:20:31.795Z,70.16
2023-05-14T07:21:35.271Z,69.54
2023-05-14T07:22:37.376Z,70.81
2023-05-14T07:23:39.610Z,68.97
2023-05-14T07:24:41.770Z,69.81
2023-05-14T07:25:43.891Z,69.96
2023-05-14T07:26:46.167Z,70.07
2023-05-14T07:27:48.389Z,69.88
2023-05-14T07:28:50.677Z,70.08
2023-05-14T07:29:52.813Z,68.80
2023-05-14T07:30:54.932Z,69.03
2023-05-14T07:31:57.154Z,68.46
2023-05-14T07:32:59.377Z,67.67
2023-05-14T07:34:01.574Z,68.57
2023-05-14T07:35:03.995Z,69.21
2023-05-14T07:36:06.579Z,68.43
2023-05-14T07:37:08.969Z,67.86
2023-05-14T07:38:11.139Z,68.60
2023-05-14T07:39:13.330Z,68.61
2023-05-14T07:40:15.769Z,68.97
2023-05-14T07:41:18.004Z,67.96
2023-05-14T07:42:28.287Z,67.44
2023-05-14T07:43:38.532Z,67.66
2023-05-14T07:44:40.605Z,66.88
2023-05-14T07:45:42.834Z,68.14
2023-05-14T07:46:44.938Z,68.74
2023-05-14T07:47:47.234Z,68.31
2023-05-14T07:48:49.440Z,69.29
2023-05-14T07:49:55.018Z,68.81
2023-05-14T07:50:57.135Z,67.82
2023-05-14T07:51:59.308Z,68.37
2023-05-14T07:53:01.472Z,68.50
2023-05-14T07:54:03.855Z,67.88
2023-05-14T07:55:06.935Z,67.74
2023-05-14T07:56:09.068Z,66.08
2023-05-14T07:57:11.194Z,67.70
2023-05-14T07:58:13.319Z,65.82
2023-05-14T07:59:15.512Z,66.22
2023-05-14T08:00:18.145Z,68.37
2023-05-14T08:01:20.885Z,69.05
2023-05-14T08:02:23.122Z,67.53
2023-05-14T08:03:25.543Z,67.19
2023-05-14T08:04:27.796Z,69.56
2023-05-14T08:05:29.982Z,68.72
2023-05-14T08:06:32.098Z,67.49
2023-05-14T08:07:34.264Z,67.79
2023-05-14T08:08:36.390Z,69.83
2023-05-14T08:09:38.479Z,69.40
2023-05-14T08:10:40.667Z,68.17
2023-05-14T08:11:42.936Z,67.44
2023-05-14T08:12:45.062Z,67.73
2023-05-14T08:13:47.171Z,70.04
2023-05-14T08:14:49.295Z,69.49
2023-05-14T08:15:51.461Z,70.99
2023-05-14T08:16:53.580Z,69.91
2023-05-14T08:17:55.920Z,70.38
2023-05-14T08:18:58.141Z,72.00
2023-05-14T08:20:00.465Z,69.77
2023-05-14T08:21:03.572Z,71.32
2023-05-14T08:22:06.002Z,71.31
2023-05-14T08:23:09.233Z,71.19
2023-05-14T08:24:11.448Z,71.27
2023-05-14T08:25:13.710Z,71.66
2023-05-14T08:26:15.781Z,71.67
2023-05-14T08:27:17.946Z,71.94
2023-05-14T08:28:20.076Z,71.71
2023-05-14T08:29:22.203Z,71.88
2023-05-14T08:30:24.545Z,71.66
2023-05-14T08:31:27.005Z,72.51
2023-05-14T08:32:29.681Z,72.96
2023-05-14T08:33:31.837Z,72.26
2023-05-14T08:34:33.943Z,72.72
2023-05-14T08:35:36.281Z,72.37
2023-05-14T08:36:39.203Z,74.06
2023-05-14T08:37:41.314Z,72.30
2023-05-14T08:38:44.236Z,72.40
2023-05-14T08:39:46.394Z,72.37
2023-05-14T08:40:58.789Z,71.47
2023-05-14T08:42:02.351Z,73.21
2023-05-14T08:43:05.947Z,74.09
2023-05-14T08:44:14.969Z,73.71
2023-05-14T08:45:19.637Z,74.80
2023-05-14T08:46:22.362Z,73.25
2023-05-14T08:47:25.424Z,73.34
2023-05-14T08:48:32.209Z,75.08
2023-05-14T08:49:45.049Z,75.34
2023-05-14T08:50:47.275Z,74.66
2023-05-14T08:51:49.608Z,74.02
2023-05-14T08:52:52.249Z,74.35
2023-05-14T08:53:54.514Z,74.35
2023-05-14T08:54:57.653Z,73.79
2023-05-14T08:56:01.668Z,74.27
2023-05-14T08:57:04.661Z,73.82
2023-05-14T08:58:06.836Z,73.86
2023-05-14T08:59:08.940Z,73.03
2023-05-14T09:00:11.919Z,74.71
2023-05-14T09:01:14.198Z,73.88
2023-05-14T09:02:17.480Z,74.62
2023-05-14T09:03:21.081Z,75.76
2023-05-14T09:04:24.825Z,71.99
2023-05-14T09:05:27.114Z,72.37
2023-05-14T09:06:29.447Z,72.88
2023-05-14T09:07:31.869Z,75.05
2023-05-14T09:08:36.452Z,74.06
2023-05-14T09:09:38.482Z,74.95
2023-05-14T09:10:40.605Z,73.57
2023-05-14T09:11:45.695Z,74.77
2023-05-14T09:12:47.928Z,73.50
2023-05-14T09:13:50.080Z,73.56
2023-05-14T09:14:52.204Z,74.38
2023-05-14T09:15:54.948Z,73.78
2023-05-14T09:16:57.241Z,74.42
2023-05-14T09:17:59.846Z,76.17
2023-05-14T09:19:02.067Z,75.22
2023-05-14T09:20:04.950Z,74.31
2023-05-14T09:21:08.366Z,74.73
2023-05-14T09:22:13.099Z,76.01
2023-05-14T09:23:15.659Z,76.31
2023-05-14T09:24:26.170Z,75.28
2023-05-14T09:25:31.962Z,75.93
2023-05-14T09:26:34.903Z,74.72
2023-05-14T09:27:37.074Z,74.56
2023-05-14T09:28:42.134Z,75.59
2023-05-14T09:29:44.274Z,75.00
2023-05-14T09:30:52.249Z,75.53
2023-05-14T09:31:55.855Z,75.51
2023-05-14T09:32:58.034Z,74.46
2023-05-14T09:34:00.766Z,74.75
2023-05-14T09:35:20.739Z,74.22
2023-05-14T09:36:24.963Z,73.90
2023-05-14T09:37:28.713Z,73.03
2023-05-14T09:38:34.048Z,74.72
2023-05-14T09:39:37.318Z,73.80
2023-05-14T09:40:39.778Z,73.39
2023-05-14T09:41:41.973Z,73.42
2023-05-14T09:42:44.474Z,73.18
2023-05-14T09:43:46.586Z,73.07
2023-05-14T09:44:48.739Z,73.36
2023-05-14T09:45:50.864Z,73.09
2023-05-14T09:46:53.380Z,74.10
2023-05-14T09:47:55.797Z,73.57
2023-05-14T09:48:58.584Z,75.07
2023-05-14T09:50:00.775Z,75.26
2023-05-14T09:51:04.642Z,74.88
2023-05-14T09:52:07.045Z,73.99
2023-05-14T09:53:09.961Z,75.69
2023-05-14T09:54:12.126Z,74.61
2023-05-14T09:55:14.394Z,74.77
2023-05-14T09:56:16.615Z,74.95
2023-05-14T09:57:19.287Z,75.83
2023-05-14T09:58:21.728Z,75.35
2023-05-14T09:59:23.835Z,76.91
2023-05-14T10:00:26.253Z,75.80
2023-05-14T10:01:29.929Z,75.78
2023-05-14T10:02:38.913Z,75.76
2023-05-14T10:03:41.283Z,74.06
2023-05-14T10:04:45.132Z,75.01
2023-05-14T10:05:49.203Z,75.66
2023-05-14T10:06:52.394Z,75.14
2023-05-14T10:07:57.387Z,75.35
2023-05-14T10:09:03.075Z,75.52
2023-05-14T10:10:08.105Z,75.43
2023-05-14T10:11:25.114Z,76.19
2023-05-14T10:12:29.914Z,76.20
2023-05-14T10:13:38.058Z,75.05
2023-05-14T10:14:41.485Z,74.99
2023-05-14T10:15:50.660Z,75.34
2023-05-14T10:16:54.169Z,75.31
2023-05-14T10:17:59.352Z,75.17
2023-05-14T10:19:06.557Z,75.49
2023-05-14T10:20:10.108Z,74.32
2023-05-14T10:21:14.795Z,75.15
2023-05-14T10:22:16.814Z,74.60
2023-05-14T10:23:19.080Z,75.52
2023-05-14T10:24:21.775Z,75.42
2023-05-14T10:25:24.163Z,75.30
2023-05-14T10:26:27.673Z,75.15
2023-05-14T10:27:30.214Z,75.20
2023-05-14T10:28:32.777Z,74.94
2023-05-14T10:29:36.317Z,74.48
2023-05-14T10:30:46.269Z,74.92
2023-05-14T10:31:49.764Z,74.57
2023-05-14T10:33:06.568Z,74.01
2023-05-14T10:34:32.476Z,74.07
2023-05-14T10:35:57.948Z,73.00
2023-05-14T10:37:07.095Z,72.94
2023-05-14T10:38:09.293Z,74.48
2023-05-14T10:39:11.400Z,73.88
2023-05-14T10:40:14.390Z,73.81
2023-05-14T10:41:17.924Z,74.74
2023-05-14T10:42:27.712Z,74.97
2023-05-14T10:43:31.050Z,75.67
2023-05-14T10:44:35.761Z,74.87
2023-05-14T10:45:37.853Z,75.17
2023-05-14T10:46:40.356Z,75.10
2023-05-14T10:47:44.726Z,75.42
2023-05-14T10:48:46.933Z,75.46
2023-05-14T10:49:49.583Z,75.38
2023-05-14T10:50:52.216Z,75.41
2023-05-14T10:51:54.536Z,76.23
2023-05-14T10:52:57.230Z,76.03
2023-05-14T10:54:01.180Z,74.37
2023-05-14T10:55:10.112Z,74.48
2023-05-14T10:56:13.848Z,74.41
2023-05-14T10:57:18.148Z,75.79
2023-05-14T10:58:20.993Z,75.01
2023-05-14T10:59:27.524Z,75.47
2023-05-14T11:00:29.684Z,75.20
2023-05-14T11:01:32.021Z,73.82
2023-05-14T11:02:39.833Z,73.84
2023-05-14T11:03:45.916Z,75.76
2023-05-14T11:05:00.935Z,74.81
2023-05-14T11:06:03.790Z,74.88
2023-05-14T11:07:06.092Z,75.28
2023-05-14T11:08:08.775Z,75.57
2023-05-14T11:09:12.865Z,75.52
2023-05-14T11:10:20.474Z,77.03
2023-05-14T11:11:24.620Z,75.13
2023-05-14T11:12:27.393Z,75.66
2023-05-14T11:13:30.132Z,74.78
2023-05-14T11:14:32.252Z,76.02
2023-05-14T11:15:34.586Z,75.83
2023-05-14T11:16:37.774Z,76.92
2023-05-14T11:17:41.411Z,77.20
2023-05-14T11:18:43.575Z,77.48
2023-05-14T11:19:45.981Z,78.38
2023-05-14T11:20:48.114Z,76.70
2023-05-14T11:21:50.254Z,76.74
2023-05-14T11:22:52.460Z,77.42
2023-05-14T11:23:55.584Z,76.70
2023-05-14T11:24:57.755Z,77.08
2023-05-14T11:25:59.918Z,76.26
2023-05-14T11:27:02.062Z,79.31
2023-05-14T11:28:04.414Z,78.75
2023-05-14T11:29:07.057Z,78.96
2023-05-14T11:30:17.212Z,79.06
2023-05-14T11:31:19.442Z,79.04
2023-05-14T11:32:21.827Z,78.39
2023-05-14T11:33:23.985Z,79.25
2023-05-14T11:34:26.135Z,78.39
2023-05-14T11:35:28.290Z,79.15
2023-05-14T11:36:31.210Z,79.01
2023-05-14T11:37:33.481Z,78.23
2023-05-14T11:38:47.439Z,78.74
2023-05-14T11:39:54.738Z,79.44
2023-05-14T11:40:58.486Z,79.75
2023-05-14T11:42:03.093Z,79.06
2023-05-14T11:43:05.214Z,80.48
2023-05-14T11:44:08.557Z,78.91
2023-05-14T11:45:12.697Z,80.49
2023-05-14T11:46:21.871Z,79.60
2023-05-14T11:47:24.154Z,80.38
2023-05-14T11:48:26.296Z,80.06
2023-05-14T11:49:32.436Z,80.29
2023-05-14T11:50:36.703Z,82.14
2023-05-14T11:51:38.866Z,81.70
2023-05-14T11:52:41.648Z,81.47
2023-05-14T11:53:45.261Z,80.55
2023-05-14T11:54:49.712Z,81.19
2023-05-14T11:55:53.071Z,80.51
2023-05-14T11:56:56.225Z,81.03
2023-05-14T11:57:58.461Z,80.40
2023-05-14T11:59:00.861Z,79.48
2023-05-14T12:00:04.711Z,79.73
2023-05-14T12:01:07.066Z,79.57
2023-05-14T12:02:13.140Z,80.87
2023-05-14T12:03:15.795Z,81.21
2023-05-14T12:04:22.371Z,82.15
2023-05-14T12:05:25.227Z,81.86
2023-05-14T12:06:32.190Z,81.77
2023-05-14T12:07:34.342Z,80.63
2023-05-14T12:08:37.700Z,81.19
2023-05-14T12:09:44.230Z,82.44
2023-05-14T12:10:47.336Z,81.27
2023-05-14T12:11:50.914Z,82.75
2023-05-14T12:12:52.997Z,81.98
2023-05-14T12:13:55.096Z,82.54
2023-05-14T12:14:59.821Z,82.40
2023-05-14T12:16:05.465Z,83.41
2023-05-14T12:17:15.755Z,83.51
2023-05-14T12:18:24.456Z,82.58
2023-05-14T12:19:27.459Z,83.19
2023-05-14T12:20:29.732Z,82.92
2023-05-14T12:21:32.064Z,84.47
2023-05-14T12:22:36.402Z,82.72
2023-05-14T12:23:39.677Z,81.38
2023-05-14T12:25:03.795Z,81.32
2023-05-14T12:26:07.250Z,82.49
2023-05-14T12:27:10.495Z,82.76
2023-05-14T12:28:16.366Z,82.74
2023-05-14T12:29:18.550Z,82.82
2023-05-14T12:30:22.080Z,82.91
2023-05-14T12:31:34.202Z,83.04
2023-05-14T12:32:39.400Z,83.36
2023-05-14T12:33:41.685Z,83.19
2023-05-14T12:34:43.803Z,84.17
2023-05-14T12:35:47.019Z,83.78
2023-05-14T12:36:49.202Z,84.58
2023-05-14T12:37:51.300Z,84.68
2023-05-14T12:39:01.578Z,84.30
2023-05-14T12:40:06.846Z,83.86
2023-05-14T12:41:08.980Z,84.25
2023-05-14T12:42:11.200Z,84.96
2023-05-14T12:43:13.308Z,84.16
2023-05-14T12:44:15.498Z,85.66
2023-05-14T12:45:17.847Z,84.87
2023-05-14T12:46:20.195Z,85.25
2023-05-14T12:47:22.484Z,85.02
2023-05-14T12:48:25.053Z,84.84
2023-05-14T12:49:27.221Z,85.13
2023-05-14T12:50:29.812Z,86.07
2023-05-14T12:51:31.946Z,86.21
2023-05-14T12:52:38.359Z,85.76
2023-05-14T12:53:41.718Z,85.80
2023-05-14T12:54:44.165Z,85.77
2023-05-14T12:55:46.376Z,85.92
2023-05-14T12:56:48.866Z,87.24
2023-05-14T12:57:51.022Z,86.22
2023-05-14T12:58:54.527Z,85.80
2023-05-14T12:59:57.277Z,85.34
2023-05-14T13:00:59.690Z,86.00
2023-05-14T13:02:01.866Z,86.42
2023-05-14T13:03:04.041Z,86.38
2023-05-14T13:04:06.375Z,86.91
2023-05-14T13:05:08.694Z,87.17
2023-05-14T13:06:10.945Z,87.11
2023-05-14T13:07:13.235Z,87.18
2023-05-14T13:08:17.815Z,88.39
2023-05-14T13:09:19.933Z,89.00
2023-05-14T13:10:22.038Z,88.54
2023-05-14T13:11:24.109Z,87.88
2023-05-14T13:12:26.886Z,87.74
2023-05-14T13:13:29.146Z,87.80
2023-05-14T13:14:31.246Z,87.70
2023-05-14T13:15:33.778Z,88.66
2023-05-14T13:16:36.047Z,88.36
2023-05-14T13:17:38.224Z,88.82
2023-05-14T13:18:40.329Z,88.68
2023-05-14T13:19:42.471Z,88.06
2023-05-14T13:20:46.118Z,88.83
2023-05-14T13:21:48.403Z,89.23
2023-05-14T13:22:50.730Z,88.81
2023-05-14T13:23:52.853Z,89.31
2023-05-14T13:24:54.973Z,88.76
2023-05-14T13:25:57.074Z,88.99
2023-05-14T13:26:59.167Z,88.58
2023-05-14T13:28:01.564Z,89.21
2023-05-14T13:29:03.705Z,89.57
2023-05-14T13:30:06.366Z,89.50
2023-05-14T13:31:09.238Z,89.84
2023-05-14T13:32:11.438Z,89.30
2023-05-14T13:33:13.586Z,89.07
2023-05-14T13:34:15.909Z,88.42
2023-05-14T13:35:18.161Z,88.91